createdAt,value
2022-10-11T00:01:28.526Z,2.50
2022-10-11T00:04:15.360Z,2.73
2022-10-11T00:07:02.280Z,2.73
2022-10-11T00:09:49.134Z,2.60
2022-10-11T00:12:38.271Z,2.80
2022-10-11T00:15:25.407Z,2.90
2022-10-11T00:18:12.095Z,2.90
2022-10-11T00:21:03.367Z,3.00
2022-10-11T00:23:50.377Z,2.40
2022-10-11T00:26:37.136Z,3.07
2022-10-11T00:29:25.265Z,2.40
2022-10-11T00:32:12.564Z,2.40
2022-10-11T00:35:04.739Z,2.53
2022-10-11T00:37:51.821Z,2.90
2022-10-11T00:40:39.155Z,2.93
2022-10-11T00:43:28.324Z,2.60
2022-10-11T00:46:32.163Z,2.70
2022-10-11T00:49:24.113Z,2.50
2022-10-11T00:52:18.106Z,2.63
2022-10-11T00:55:09.511Z,2.33
2022-10-11T00:57:59.040Z,2.50
2022-10-11T01:00:46.282Z,3.40
2022-10-11T01:03:37.117Z,2.90
2022-10-11T01:06:24.314Z,2.43
2022-10-11T01:09:11.944Z,2.30
2022-10-11T01:12:01.746Z,2.13
2022-10-11T01:15:05.404Z,2.57
2022-10-11T01:17:58.171Z,2.27
2022-10-11T01:21:05.710Z,2.90
2022-10-11T01:24:24.007Z,2.90
2022-10-11T01:27:45.290Z,3.07
2022-10-11T01:30:35.498Z,3.30
2022-10-11T01:33:34.925Z,2.43
2022-10-11T01:36:29.329Z,2.73
2022-10-11T01:39:21.148Z,2.30
2022-10-11T01:42:11.126Z,2.10
2022-10-11T01:44:59.548Z,2.07
2022-10-11T01:47:48.088Z,2.67
2022-10-11T01:50:40.305Z,2.80
2022-10-11T01:54:00.015Z,2.70
2022-10-11T01:57:35.291Z,2.07
2022-10-11T02:00:24.373Z,2.50
2022-10-11T02:03:23.639Z,2.77
2022-10-11T02:06:14.253Z,2.40
2022-10-11T02:09:08.312Z,2.00
2022-10-11T02:12:00.283Z,2.63
2022-10-11T02:14:50.302Z,2.93
2022-10-11T02:17:43.470Z,2.87
2022-10-11T02:20:38.475Z,2.40
2022-10-11T02:23:30.910Z,2.77
2022-10-11T02:26:19.371Z,2.30
2022-10-11T02:29:09.157Z,3.07
2022-10-11T02:31:59.717Z,2.73
2022-10-11T02:34:52.013Z,3.03
2022-10-11T02:37:43.859Z,3.10
2022-10-11T02:40:34.205Z,2.40
2022-10-11T02:43:26.886Z,2.57
2022-10-11T02:46:17.566Z,2.60
2022-10-11T02:49:04.779Z,2.13
2022-10-11T02:51:51.669Z,2.60
2022-10-11T02:54:40.196Z,2.50
2022-10-11T02:57:27.230Z,2.10
2022-10-11T03:00:15.534Z,2.47
2022-10-11T03:03:02.578Z,2.20
2022-10-11T03:05:49.660Z,2.27
2022-10-11T03:08:36.694Z,2.20
2022-10-11T03:11:25.128Z,2.20
2022-10-11T03:14:12.155Z,1.77
2022-10-11T03:17:17.239Z,2.20
2022-10-11T03:20:08.533Z,1.93
2022-10-11T03:22:55.605Z,2.33
2022-10-11T03:25:42.398Z,2.57
2022-10-11T03:28:30.953Z,2.57
2022-10-11T03:31:18.653Z,2.70
2022-10-11T03:34:05.445Z,2.63
2022-10-11T03:36:52.656Z,2.47
2022-10-11T03:39:40.536Z,2.03
2022-10-11T03:42:27.594Z,2.33
2022-10-11T03:45:16.739Z,2.27
2022-10-11T03:48:03.749Z,2.03
2022-10-11T03:50:51.139Z,2.77
2022-10-11T03:53:38.691Z,2.40
2022-10-11T03:56:26.145Z,2.40
2022-10-11T03:59:12.805Z,2.47
2022-10-11T04:02:01.363Z,2.10
2022-10-11T04:04:48.180Z,2.57
2022-10-11T04:07:35.550Z,2.70
2022-10-11T04:10:22.615Z,2.17
2022-10-11T04:13:11.896Z,2.30
2022-10-11T04:15:59.100Z,2.50
2022-10-11T04:18:47.790Z,2.47
2022-10-11T04:21:34.528Z,2.83
2022-10-11T04:24:21.667Z,2.47
2022-10-11T04:27:08.451Z,2.30
2022-10-11T04:29:55.484Z,2.40
2022-10-11T04:32:42.311Z,2.37
2022-10-11T04:35:31.118Z,2.03
2022-10-11T04:38:18.064Z,2.30
2022-10-11T04:41:09.225Z,2.67
2022-10-11T04:43:56.005Z,3.37
2022-10-11T04:46:43.070Z,2.87
2022-10-11T04:49:30.039Z,2.90
2022-10-11T04:52:22.112Z,3.00
2022-10-11T04:55:11.929Z,3.03
2022-10-11T04:57:58.873Z,3.27
2022-10-11T05:00:45.747Z,2.37
2022-10-11T05:03:32.610Z,2.77
2022-10-11T05:06:19.426Z,2.67
2022-10-11T05:09:07.595Z,2.70
2022-10-11T05:11:54.421Z,2.43
2022-10-11T05:14:41.546Z,3.03
2022-10-11T05:17:28.651Z,3.07
2022-10-11T05:20:15.934Z,2.40
2022-10-11T05:23:02.960Z,2.43
2022-10-11T05:25:51.444Z,2.60
2022-10-11T05:28:38.527Z,3.10
2022-10-11T05:31:25.596Z,2.73
2022-10-11T05:34:12.397Z,2.73
2022-10-11T05:36:59.179Z,2.90
2022-10-11T05:39:46.350Z,3.27
2022-10-11T05:42:34.849Z,2.67
2022-10-11T05:45:21.802Z,3.07
2022-10-11T05:48:09.021Z,3.13
2022-10-11T05:51:00.664Z,3.53
2022-10-11T05:53:47.705Z,3.30
2022-10-11T05:56:34.748Z,3.13
2022-10-11T05:59:23.787Z,2.73
2022-10-11T06:02:12.850Z,2.47
2022-10-11T06:04:59.506Z,2.63
2022-10-11T06:07:46.722Z,3.23
2022-10-11T06:10:34.356Z,3.13
2022-10-11T06:13:21.528Z,2.97
2022-10-11T06:16:10.947Z,3.60
2022-10-11T06:18:58.735Z,2.70
2022-10-11T06:21:46.722Z,2.23
2022-10-11T06:24:33.541Z,2.80
2022-10-11T06:27:20.611Z,3.37
2022-10-11T06:30:08.845Z,3.83
2022-10-11T06:33:00.064Z,3.00
2022-10-11T06:35:50.620Z,2.47
2022-10-11T06:38:42.326Z,2.40
2022-10-11T06:41:32.228Z,2.83
2022-10-11T06:44:19.274Z,3.17
2022-10-11T06:47:07.930Z,3.07
2022-10-11T06:49:56.070Z,3.30
2022-10-11T06:52:43.605Z,3.47
2022-10-11T06:55:30.406Z,3.00
2022-10-11T06:58:17.201Z,3.10
2022-10-11T07:01:06.642Z,3.27
2022-10-11T07:03:55.473Z,3.50
2022-10-11T07:06:44.257Z,4.13
2022-10-11T07:09:31.541Z,2.60
2022-10-11T07:12:18.413Z,2.83
2022-10-11T07:15:06.198Z,3.00
2022-10-11T07:17:53.201Z,3.77
2022-10-11T07:20:40.488Z,3.30
2022-10-11T07:23:28.962Z,3.97
2022-10-11T07:26:38.819Z,3.50
2022-10-11T07:29:26.246Z,3.43
2022-10-11T07:32:13.216Z,3.10
2022-10-11T07:35:00.445Z,2.83
2022-10-11T07:37:47.669Z,3.17
2022-10-11T07:40:42.954Z,3.23
2022-10-11T07:43:29.732Z,2.70
2022-10-11T07:46:17.562Z,3.03
2022-10-11T07:49:04.490Z,2.77
2022-10-11T07:51:51.338Z,3.07
2022-10-11T07:54:40.215Z,3.53
2022-10-11T07:57:28.982Z,3.20
2022-10-11T08:00:16.199Z,2.90
2022-10-11T08:03:04.930Z,2.60
2022-10-11T08:05:53.294Z,2.90
2022-10-11T08:08:40.181Z,2.65
2022-10-11T08:11:29.710Z,2.72
2022-10-11T08:14:19.125Z,2.42
2022-10-11T08:17:05.810Z,3.08
2022-10-11T08:19:52.961Z,2.22
2022-10-11T08:22:40.156Z,2.72
2022-10-11T08:25:27.222Z,2.88
2022-10-11T08:28:17.968Z,2.72
2022-10-11T08:31:08.403Z,2.60
2022-10-11T08:33:55.863Z,2.08
2022-10-11T08:36:43.075Z,2.47
2022-10-11T08:39:30.439Z,2.70
2022-10-11T08:42:29.800Z,2.58
2022-10-11T08:45:28.303Z,2.30
2022-10-11T08:48:21.355Z,2.30
2022-10-11T08:51:16.255Z,2.15
2022-10-11T08:54:08.161Z,2.50
2022-10-11T08:56:55.041Z,2.70
2022-10-11T08:59:48.592Z,2.10
2022-10-11T09:03:06.898Z,2.50
2022-10-11T09:06:04.845Z,2.47
2022-10-11T09:09:04.679Z,2.30
2022-10-11T09:12:08.104Z,2.40
2022-10-11T09:15:09.999Z,3.33
2022-10-11T09:18:10.400Z,2.20
2022-10-11T09:21:13.251Z,2.90
2022-10-11T09:24:24.885Z,2.60
2022-10-11T09:27:33.083Z,2.40
2022-10-11T09:30:27.587Z,2.88
2022-10-11T09:33:20.621Z,2.20
2022-10-11T09:36:20.269Z,2.30
2022-10-11T09:39:16.676Z,1.95
2022-10-11T09:42:05.067Z,1.88
2022-10-11T09:44:52.984Z,2.40
2022-10-11T09:47:40.277Z,1.98
2022-10-11T09:50:30.683Z,2.40
2022-10-11T09:53:19.742Z,2.20
2022-10-11T09:56:07.486Z,2.25
2022-10-11T09:59:37.723Z,2.47
2022-10-11T10:02:25.668Z,2.50
2022-10-11T10:05:21.763Z,2.35
2022-10-11T10:08:25.488Z,2.47
2022-10-11T10:11:13.302Z,2.25
2022-10-11T10:14:00.206Z,2.78
2022-10-11T10:16:47.364Z,2.22
2022-10-11T10:19:44.931Z,2.20
2022-10-11T10:22:35.441Z,2.10
2022-10-11T10:25:32.055Z,2.90
2022-10-11T10:28:22.422Z,2.33
2022-10-11T10:31:22.165Z,2.40
2022-10-11T10:34:16.975Z,2.58
2022-10-11T10:37:09.014Z,2.90
2022-10-11T10:40:01.786Z,2.63
2022-10-11T10:42:51.653Z,2.58
2022-10-11T10:45:54.721Z,2.78
2022-10-11T10:52:18.522Z,2.92
2022-10-11T10:55:11.804Z,2.60
2022-10-11T10:58:11.368Z,3.08
2022-10-11T11:01:03.850Z,2.75
2022-10-11T11:03:58.644Z,2.50
2022-10-11T11:06:51.382Z,2.13
2022-10-11T11:09:49.380Z,2.55
2022-10-11T11:12:49.474Z,2.58
2022-10-11T11:15:44.179Z,2.60
2022-10-11T11:18:37.792Z,2.10
2022-10-11T11:21:41.350Z,3.13
2022-10-11T11:24:38.896Z,2.10
2022-10-11T11:27:40.514Z,2.33
2022-10-11T11:30:38.042Z,2.20
2022-10-11T11:33:37.388Z,2.13
2022-10-11T11:36:32.430Z,2.92
2022-10-11T11:39:23.715Z,2.30
2022-10-11T11:42:17.373Z,2.10
2022-10-11T11:45:14.073Z,2.53
2022-10-11T11:48:05.329Z,2.50
2022-10-11T11:51:00.143Z,1.83
2022-10-11T11:53:54.699Z,2.28
2022-10-11T11:56:52.032Z,2.22
2022-10-11T11:59:45.176Z,2.30
2022-10-11T12:02:42.592Z,2.55
2022-10-11T12:05:32.454Z,2.30
2022-10-11T12:08:28.849Z,2.40
2022-10-11T12:11:22.270Z,2.00
2022-10-11T12:14:27.651Z,1.70
2022-10-11T12:17:20.144Z,2.55
2022-10-11T12:20:16.424Z,2.20
2022-10-11T12:23:05.859Z,2.22
2022-10-11T12:26:20.108Z,2.15
2022-10-11T12:29:28.764Z,2.63
2022-10-11T12:32:51.202Z,2.50
2022-10-11T12:36:04.088Z,1.98
2022-10-11T12:39:59.694Z,2.30
2022-10-11T12:43:23.718Z,1.90
2022-10-11T12:46:53.784Z,2.40
2022-10-11T12:50:02.994Z,2.42
2022-10-11T12:53:12.435Z,2.38
2022-10-11T12:56:12.093Z,2.67
2022-10-11T13:02:45.209Z,3.00
2022-10-11T13:18:01.886Z,2.17
2022-10-11T13:20:48.661Z,2.38
2022-10-11T13:23:39.341Z,2.72
2022-10-11T13:26:27.394Z,4.10
2022-10-11T13:29:17.935Z,2.63
2022-10-11T13:32:07.615Z,3.22
2022-10-11T13:34:58.461Z,3.05
2022-10-11T13:37:47.769Z,2.92
2022-10-11T13:40:34.640Z,2.88
2022-10-11T13:43:23.439Z,2.90
2022-10-11T13:46:20.750Z,2.92
2022-10-11T13:49:27.364Z,2.78
2022-10-11T13:52:24.533Z,2.63
2022-10-11T13:55:23.021Z,3.22
2022-10-11T13:58:18.743Z,3.00
2022-10-11T14:01:17.637Z,3.17
2022-10-11T14:04:07.423Z,3.72
2022-10-11T14:06:58.116Z,3.53
2022-10-11T14:09:48.842Z,3.08
2022-10-11T14:12:39.684Z,3.05
2022-10-11T14:15:28.714Z,3.15
2022-10-11T14:18:44.846Z,3.00
2022-10-11T14:21:34.681Z,3.90
2022-10-11T14:24:21.924Z,3.33
2022-10-11T14:27:17.336Z,3.75
2022-10-11T14:33:15.031Z,3.97
2022-10-11T14:36:02.231Z,4.30
2022-10-11T14:38:49.091Z,3.30
2022-10-11T14:41:35.959Z,3.35
2022-10-11T14:44:24.221Z,3.10
2022-10-11T14:47:14.499Z,3.33
2022-10-11T14:50:01.326Z,3.40
2022-10-11T14:52:48.238Z,3.38
2022-10-11T14:55:36.682Z,3.38
2022-10-11T14:58:23.362Z,3.47
2022-10-11T15:01:14.560Z,3.22
2022-10-11T15:04:01.532Z,3.50
2022-10-11T15:06:48.998Z,3.83
2022-10-11T15:09:36.185Z,3.58
2022-10-11T15:12:22.925Z,3.65
2022-10-11T15:15:14.730Z,3.53
2022-10-11T15:18:06.562Z,3.83
2022-10-11T15:20:55.079Z,3.78
2022-10-11T15:23:41.754Z,3.38
2022-10-11T15:26:30.431Z,3.58
2022-10-11T15:29:18.929Z,3.42
2022-10-11T15:32:05.965Z,3.20
2022-10-11T15:34:54.196Z,3.15
2022-10-11T15:37:41.752Z,3.22
2022-10-11T15:40:33.419Z,3.33
2022-10-11T15:43:24.524Z,3.75
2022-10-11T15:46:15.125Z,3.53
2022-10-11T15:49:06.597Z,3.78
2022-10-11T15:51:54.988Z,4.00
2022-10-11T15:54:41.682Z,4.30
2022-10-11T15:57:28.780Z,4.65
2022-10-11T16:00:21.220Z,3.33
2022-10-11T16:03:09.241Z,3.95
2022-10-11T16:05:59.987Z,3.30
2022-10-11T16:08:52.150Z,3.30
2022-10-11T16:11:39.281Z,3.67
2022-10-11T16:14:26.519Z,4.00
2022-10-11T16:17:13.309Z,3.60
2022-10-11T16:20:00.428Z,3.97
2022-10-11T16:22:47.570Z,4.50
2022-10-11T16:25:36.814Z,3.90
2022-10-11T16:28:23.581Z,4.47
2022-10-11T16:31:12.180Z,4.35
2022-10-11T16:33:59.415Z,4.90
2022-10-11T16:36:46.598Z,4.28
2022-10-11T16:39:35.271Z,6.23
2022-10-11T16:42:23.890Z,4.90
2022-10-11T16:45:11.639Z,4.50
2022-10-11T16:47:59.077Z,4.63
2022-10-11T16:50:45.725Z,5.67
2022-10-11T16:53:35.115Z,3.80
2022-10-11T16:56:24.114Z,4.03
2022-10-11T16:59:13.003Z,3.97
2022-10-11T17:01:59.869Z,5.07
2022-10-11T17:04:47.137Z,4.50
2022-10-11T17:07:35.254Z,5.27
2022-10-11T17:10:39.286Z,4.33
2022-10-11T17:13:26.661Z,4.40
2022-10-11T17:16:15.733Z,4.10
2022-10-11T17:19:02.651Z,4.73
2022-10-11T17:21:49.470Z,4.53
2022-10-11T17:24:37.316Z,4.53
2022-10-11T17:27:24.266Z,4.40
2022-10-11T17:30:12.992Z,4.00
2022-10-11T17:33:01.964Z,4.30
2022-10-11T17:35:48.765Z,4.70
2022-10-11T17:38:35.399Z,4.30
2022-10-11T17:41:22.424Z,4.80
2022-10-11T17:44:09.758Z,4.50
2022-10-11T17:46:56.368Z,3.93
2022-10-11T17:49:44.639Z,4.17
2022-10-11T17:52:32.035Z,4.30
2022-10-11T17:55:19.529Z,4.60
2022-10-11T17:58:06.646Z,5.03
2022-10-11T18:00:54.902Z,4.77
2022-10-11T18:03:42.212Z,4.67
2022-10-11T18:06:33.809Z,4.80
2022-10-11T18:09:21.416Z,5.00
2022-10-11T18:12:08.383Z,4.70
2022-10-11T18:14:55.284Z,4.50
2022-10-11T18:17:41.966Z,5.23
2022-10-11T18:20:28.714Z,4.40
2022-10-11T18:23:19.089Z,5.80
2022-10-11T18:26:11.475Z,5.97
2022-10-11T18:28:58.592Z,5.13
2022-10-11T18:31:45.417Z,5.27
2022-10-11T18:34:32.383Z,4.60
2022-10-11T18:37:19.394Z,5.63
2022-10-11T18:40:09.174Z,5.73
2022-10-11T18:42:55.992Z,4.90
2022-10-11T18:45:43.183Z,5.70
2022-10-11T18:48:32.546Z,5.87
2022-10-11T18:51:21.594Z,6.27
2022-10-11T18:54:09.810Z,5.60
2022-10-11T18:56:59.385Z,5.90
2022-10-11T18:59:46.470Z,6.03
2022-10-11T19:02:33.553Z,6.37
2022-10-11T19:05:20.237Z,6.57
2022-10-11T19:08:07.578Z,6.07
2022-10-11T19:10:54.791Z,6.00
2022-10-11T19:13:43.644Z,6.70
2022-10-11T19:16:31.392Z,6.80
2022-10-11T19:19:20.212Z,6.53
2022-10-11T19:22:07.184Z,7.17
2022-10-11T19:24:54.276Z,7.07
2022-10-11T19:27:41.426Z,6.57
2022-10-11T19:30:32.208Z,5.60
2022-10-11T19:33:19.343Z,6.83
2022-10-11T19:36:07.814Z,6.00
2022-10-11T19:38:56.818Z,6.10
2022-10-11T19:41:44.790Z,5.57
2022-10-11T19:44:35.673Z,6.07
2022-10-11T19:47:26.950Z,5.50
2022-10-11T19:50:14.072Z,5.83
2022-10-11T19:53:00.650Z,5.60
2022-10-11T19:55:47.834Z,5.77
2022-10-11T19:58:34.699Z,5.37
2022-10-11T20:01:24.294Z,6.70
2022-10-11T20:04:27.808Z,6.50
2022-10-11T20:07:20.770Z,5.40
2022-10-11T20:10:08.048Z,5.00
2022-10-11T20:12:54.962Z,4.60
2022-10-11T20:15:41.899Z,5.57
2022-10-11T20:18:30.197Z,4.63
2022-10-11T20:21:21.734Z,5.50
2022-10-11T20:24:09.608Z,5.53
2022-10-11T20:26:57.113Z,6.70
2022-10-11T20:29:44.014Z,5.67
2022-10-11T20:32:31.128Z,5.60
2022-10-11T20:35:18.071Z,5.00
2022-10-11T20:38:06.236Z,5.10
2022-10-11T20:40:53.137Z,5.37
2022-10-11T20:43:42.199Z,4.50
2022-10-11T20:46:31.692Z,4.67
2022-10-11T20:49:20.040Z,5.47
2022-10-11T20:52:07.032Z,4.83
2022-10-11T20:54:55.289Z,4.03
2022-10-11T20:57:42.279Z,5.97
2022-10-11T21:00:29.231Z,6.63
2022-10-11T21:03:16.963Z,5.80
2022-10-11T21:06:03.750Z,7.13
2022-10-11T21:08:50.525Z,6.27
2022-10-11T21:11:39.168Z,6.33
2022-10-11T21:14:26.308Z,6.70
2022-10-11T21:17:13.184Z,6.60
2022-10-11T21:20:01.993Z,5.97
2022-10-11T21:22:48.974Z,6.07
2022-10-11T21:25:37.540Z,6.43
2022-10-11T21:28:26.089Z,6.10
2022-10-11T21:31:15.210Z,6.77
2022-10-11T21:34:02.094Z,6.03
2022-10-11T21:36:48.728Z,7.60
2022-10-11T21:39:36.102Z,6.43
2022-10-11T21:42:27.206Z,7.10
2022-10-11T21:45:17.953Z,6.70
2022-10-11T21:48:05.401Z,5.80
2022-10-11T21:50:54.725Z,6.37
2022-10-11T21:53:41.748Z,6.00
2022-10-11T21:56:29.073Z,6.30
2022-10-11T21:59:16.080Z,6.87
2022-10-11T22:02:04.590Z,6.90
2022-10-11T22:04:51.578Z,5.73
2022-10-11T22:07:38.485Z,5.57
2022-10-11T22:10:25.214Z,5.13
2022-10-11T22:13:12.899Z,5.07
2022-10-11T22:16:03.633Z,5.07
2022-10-11T22:18:54.012Z,5.40
2022-10-11T22:21:44.951Z,5.23
2022-10-11T22:24:32.143Z,5.33
2022-10-11T22:27:18.917Z,6.07
2022-10-11T22:30:06.180Z,5.30
2022-10-11T22:32:53.291Z,5.00
2022-10-11T22:35:41.365Z,5.80
2022-10-11T22:38:28.733Z,5.17
2022-10-11T22:41:15.177Z,5.20
2022-10-11T22:44:01.917Z,5.07
2022-10-11T22:46:49.108Z,5.13
2022-10-11T22:49:36.098Z,4.73
2022-10-11T22:52:24.091Z,4.70
2022-10-11T22:55:14.149Z,5.13
2022-10-11T22:58:03.300Z,5.93
2022-10-11T23:00:50.407Z,5.60
2022-10-11T23:03:37.058Z,5.37
2022-10-11T23:06:24.091Z,5.20
2022-10-11T23:09:12.593Z,5.87
2022-10-11T23:11:59.855Z,5.10
2022-10-11T23:14:46.592Z,5.90
2022-10-11T23:17:33.618Z,6.20
2022-10-11T23:20:20.399Z,5.43
2022-10-11T23:23:07.440Z,5.80
2022-10-11T23:26:03.648Z,6.60
2022-10-11T23:28:55.483Z,5.57
2022-10-11T23:31:42.415Z,5.67
2022-10-11T23:34:29.418Z,4.90
2022-10-11T23:37:16.533Z,4.30
2022-10-11T23:40:03.419Z,5.10
2022-10-11T23:42:51.694Z,4.80
2022-10-11T23:45:38.733Z,4.70
2022-10-11T23:48:25.255Z,5.00
2022-10-11T23:51:12.344Z,6.40
2022-10-11T23:53:59.468Z,7.10
2022-10-11T23:56:46.064Z,7.00
2022-10-11T23:59:34.048Z,6.93
